This is the latest recevied weather packets stored in our database for station/object SP4LIN-15. If no packets are shown the sender has not sent any weather packets the latest 10 day(s).
| Time | Temp. | Humidity | Pressure | Rain* | Wind** | Luminosity | Snow |
|---|---|---|---|---|---|---|---|
| 1777977544 | 21.67° C | 47% | 1002.4 hPa | 0 mm | - | - | - |
| 1777976644 | 22.78° C | 44% | 1002.5 hPa | 0 mm | - | - | - |
| 1777975744 | 24.44° C | 43% | 1002.7 hPa | 0 mm | - | - | - |
| 1777974844 | 26.67° C | 40% | 1002.6 hPa | 0 mm | - | - | - |
| 1777973944 | 27.22° C | 40% | 1002.8 hPa | 0 mm | - | - | - |
| 1777973044 | 27.22° C | 42% | 1002.8 hPa | 0 mm | - | - | - |
| 1777972144 | 24.44° C | 48% | 1003 hPa | 0 mm | - | - | - |
| 1777971244 | 19.44° C | 55% | 1003 hPa | 0 mm | - | - | - |
| 1777970344 | 18.89° C | 55% | 1003.1 hPa | 0 mm | - | - | - |
| 1777969444 | 18.33° C | 55% | 1003.2 hPa | 0 mm | - | - | - |
| 1777968544 | 18.89° C | 53% | 1003.2 hPa | 0 mm | - | - | - |
| 1777967644 | 20.56° C | 50% | 1003.3 hPa | 0 mm | - | - | - |
| 1777966744 | 22.78° C | 46% | 1003.3 hPa | 0 mm | - | - | - |
| 1777965844 | 25.56° C | 43% | 1003.4 hPa | 0 mm | - | - | - |
| 1777964944 | 22.78° C | 48% | 1003.5 hPa | 0 mm | - | - | - |
| 1777964044 | 20.56° C | 50% | 1003.5 hPa | 0 mm | - | - | - |
| 1777963144 | 25.56° C | 43% | 1003.5 hPa | 0 mm | - | - | - |
| 1777962245 | 24.44° C | 47% | 1003.5 hPa | 0 mm | - | - | - |
| 1777961345 | 22.22° C | 53% | 1003.6 hPa | 0 mm | - | - | - |
| 1777960444 | 18.33° C | 62% | 1003.8 hPa | 0 mm | - | - | - |
| 1777959544 | 16.67° C | 69% | 1003.8 hPa | 0 mm | - | - | - |
| 1777958645 | 14.44° C | 77% | 1004.1 hPa | 0 mm | - | - | - |
| 1777957745 | 13.33° C | 83% | 1003.9 hPa | 0 mm | - | - | - |
| 1777956845 | 13.33° C | 86% | 1004 hPa | 0 mm | - | - | - |
| 1777955945 | 13.33° C | 88% | 1004 hPa | 0 mm | - | - | - |
* Rain latest hour (hover to see other rain measurements)
** Current wind speed in m/s (hover to see current wind gust speed)